KSHD/SHD METAR and TAF weather

Enter ICAO airport designator
Station Type Date Time Source
KSHD METAR 2021/05/16 00:15 UTC NOAA

KSHD 160015Z AUTO 00000KT 10SM SCT110 17/03 A3023 RMK AO2 T01730031


Station Type Date Time Source
KSHD Decoded METAR 2021/05/16 00:15 UTC NOAA

Staunton / Shenandoah, VA, United States (KSHD) 38-16N 078-54W
May 15, 2021 - 08:15 PM EDT / 2021.05.16 0015 UTC
Wind: Calm:0
Visibility: 10 mile(s):0
Sky conditions: partly cloudy
Temperature: 63.1 F (17.3 C)
Dew Point: 37.6 F (3.1 C)
Relative Humidity: 38%
Pressure (altimeter): 30.23 in. Hg (1023 hPa)
ob: KSHD 160015Z AUTO 00000KT 10SM SCT110 17/03 A3023 RMK AO2 T01730031
cycle: 0

Station Type Date Time Source
KSHD TAF UTC NOAA

Error!

Example: see airport list